createdAt,value
2022-09-22T00:00:33.297Z,12.08
2022-09-22T00:03:02.967Z,12.06
2022-09-22T00:05:35.287Z,12.05
2022-09-22T00:08:05.368Z,12.03
2022-09-22T00:10:35.042Z,12.01
2022-09-22T00:13:04.724Z,12.00
2022-09-22T00:15:34.984Z,11.99
2022-09-22T00:18:04.683Z,11.97
2022-09-22T00:20:36.957Z,11.97
2022-09-22T00:23:06.636Z,11.96
2022-09-22T00:25:36.331Z,11.95
2022-09-22T00:28:06.028Z,11.93
2022-09-22T00:30:35.727Z,11.94
2022-09-22T00:33:05.398Z,11.90
2022-09-22T00:35:38.527Z,11.88
2022-09-22T00:38:08.712Z,11.86
2022-09-22T00:40:39.643Z,11.86
2022-09-22T00:43:21.196Z,11.83
2022-09-22T00:45:53.972Z,11.82
2022-09-22T00:48:26.312Z,11.80
2022-09-22T00:51:02.965Z,11.77
2022-09-22T00:53:33.090Z,11.74
2022-09-22T00:56:06.543Z,11.74
2022-09-22T00:58:40.492Z,11.71
2022-09-22T01:01:10.306Z,11.69
2022-09-22T01:03:42.791Z,11.66
2022-09-22T01:06:19.450Z,11.65
2022-09-22T01:08:49.496Z,11.63
2022-09-22T01:11:21.304Z,11.60
2022-09-22T01:14:00.926Z,11.59
2022-09-22T01:16:45.188Z,11.56
2022-09-22T01:20:03.551Z,11.52
2022-09-22T01:22:55.880Z,11.50
2022-09-22T01:25:49.983Z,11.44
2022-09-22T01:28:49.691Z,11.43
2022-09-22T01:31:28.239Z,11.40
2022-09-22T01:34:08.183Z,11.39
2022-09-22T01:36:43.140Z,11.37
2022-09-22T01:39:19.115Z,11.34
2022-09-22T01:41:55.168Z,11.32
2022-09-22T01:44:32.004Z,11.30
2022-09-22T01:47:10.774Z,11.27
2022-09-22T01:49:45.072Z,11.25
2022-09-22T01:52:20.940Z,11.22
2022-09-22T01:54:57.212Z,11.19
2022-09-22T01:57:32.986Z,11.17
2022-09-22T02:00:07.452Z,11.14
2022-09-22T02:02:43.816Z,11.11
2022-09-22T02:05:18.227Z,11.08
2022-09-22T02:07:51.692Z,11.06
2022-09-22T02:10:27.726Z,11.03
2022-09-22T02:12:57.504Z,11.00
2022-09-22T02:15:39.684Z,10.99
2022-09-22T02:18:17.706Z,10.96
2022-09-22T02:20:47.933Z,10.94
2022-09-22T02:23:17.714Z,10.93
2022-09-22T02:25:48.917Z,10.90
2022-09-22T02:28:21.488Z,10.87
2022-09-22T02:31:18.656Z,10.85
2022-09-22T02:33:47.959Z,10.82
2022-09-22T02:36:31.313Z,10.80
2022-09-22T02:39:09.933Z,10.78
2022-09-22T02:41:53.683Z,10.75
2022-09-22T02:44:31.344Z,10.70
2022-09-22T02:47:05.880Z,10.65
2022-09-22T02:49:38.892Z,10.63
2022-09-22T02:52:13.463Z,10.60
2022-09-22T02:54:43.568Z,10.59
2022-09-22T02:57:13.504Z,10.56
2022-09-22T02:59:43.216Z,10.53
2022-09-22T03:02:13.127Z,10.52
2022-09-22T03:04:45.558Z,10.50
2022-09-22T03:07:15.282Z,10.48
2022-09-22T03:09:44.976Z,10.47
2022-09-22T03:12:14.671Z,10.45
2022-09-22T03:14:44.369Z,10.43
2022-09-22T03:17:14.072Z,10.42
2022-09-22T03:19:46.378Z,10.40
2022-09-22T03:22:16.111Z,10.39
2022-09-22T03:24:45.765Z,10.37
2022-09-22T03:27:15.461Z,10.35
2022-09-22T03:29:45.156Z,10.34
2022-09-22T03:32:14.810Z,10.32
2022-09-22T03:34:47.116Z,10.31
2022-09-22T03:37:17.045Z,10.29
2022-09-22T03:39:47.127Z,10.29
2022-09-22T03:42:16.873Z,10.26
2022-09-22T03:44:46.723Z,10.25
2022-09-22T03:47:16.435Z,10.26
2022-09-22T03:49:49.125Z,10.24
2022-09-22T03:52:19.104Z,10.22
2022-09-22T03:54:48.796Z,10.21
2022-09-22T03:57:18.733Z,10.20
2022-09-22T03:59:48.436Z,10.17
2022-09-22T04:02:18.582Z,10.19
2022-09-22T04:04:50.837Z,10.18
2022-09-22T04:07:20.941Z,10.17
2022-09-22T04:09:50.636Z,10.14
2022-09-22T04:12:20.322Z,10.12
2022-09-22T04:14:50.016Z,10.11
2022-09-22T04:17:20.678Z,10.09
2022-09-22T04:19:54.103Z,10.07
2022-09-22T04:22:24.000Z,10.03
2022-09-22T04:24:54.369Z,10.01
2022-09-22T04:27:24.047Z,9.99
2022-09-22T04:29:53.867Z,9.98
2022-09-22T04:32:23.605Z,9.95
2022-09-22T04:34:55.852Z,9.93
2022-09-22T04:37:25.528Z,9.90
2022-09-22T04:39:55.931Z,9.87
2022-09-22T04:42:25.632Z,9.86
2022-09-22T04:44:57.252Z,9.84
2022-09-22T04:47:26.899Z,9.82
2022-09-22T04:49:59.322Z,9.81
2022-09-22T04:52:29.116Z,9.80
2022-09-22T04:54:58.812Z,9.78
2022-09-22T04:57:28.482Z,9.77
2022-09-22T04:59:58.164Z,9.76
2022-09-22T05:02:27.860Z,9.74
2022-09-22T05:05:00.148Z,9.72
2022-09-22T05:07:29.836Z,9.70
2022-09-22T05:09:59.688Z,9.69
2022-09-22T05:12:29.411Z,9.67
2022-09-22T05:15:00.522Z,9.66
2022-09-22T05:17:30.384Z,9.65
2022-09-22T05:20:02.707Z,9.63
2022-09-22T05:22:36.337Z,9.62
2022-09-22T05:25:11.191Z,9.61
2022-09-22T05:27:41.017Z,9.59
2022-09-22T05:30:11.871Z,9.58
2022-09-22T05:32:41.775Z,9.58
2022-09-22T05:35:14.856Z,9.58
2022-09-22T05:37:45.928Z,9.59
2022-09-22T05:40:16.758Z,9.58
2022-09-22T05:42:47.996Z,9.60
2022-09-22T05:45:18.404Z,9.60
2022-09-22T05:47:48.470Z,9.62
2022-09-22T05:50:23.954Z,9.61
2022-09-22T05:52:53.848Z,9.64
2022-09-22T05:55:23.512Z,9.65
2022-09-22T05:58:00.190Z,9.67
2022-09-22T06:00:31.024Z,9.68
2022-09-22T06:03:01.107Z,9.72
2022-09-22T06:05:36.400Z,9.73
2022-09-22T06:08:09.175Z,9.74
2022-09-22T06:10:41.009Z,9.77
2022-09-22T06:13:12.684Z,9.81
2022-09-22T06:15:42.415Z,9.82
2022-09-22T06:18:15.324Z,9.86
2022-09-22T06:20:48.307Z,9.89
2022-09-22T06:23:18.128Z,9.93
2022-09-22T06:25:47.880Z,9.96
2022-09-22T06:28:18.076Z,10.01
2022-09-22T06:30:52.099Z,10.04
2022-09-22T06:33:24.010Z,10.09
2022-09-22T06:35:58.247Z,10.13
2022-09-22T06:38:28.029Z,10.17
2022-09-22T06:41:06.821Z,10.21
2022-09-22T06:43:38.013Z,10.26
2022-09-22T06:46:09.428Z,10.32
2022-09-22T06:48:39.561Z,10.36
2022-09-22T06:51:14.074Z,10.43
2022-09-22T06:53:47.521Z,10.48
2022-09-22T06:56:19.939Z,10.54
2022-09-22T06:59:08.781Z,10.59
2022-09-22T07:01:39.750Z,10.66
2022-09-22T07:04:09.631Z,10.72
2022-09-22T07:06:43.455Z,10.78
2022-09-22T07:09:13.158Z,10.83
2022-09-22T07:11:42.836Z,10.89
2022-09-22T07:14:12.800Z,10.97
2022-09-22T07:16:43.363Z,11.04
2022-09-22T07:19:13.150Z,11.12
2022-09-22T07:21:48.440Z,11.18
2022-09-22T07:24:18.113Z,11.21
2022-09-22T07:26:47.815Z,11.30
2022-09-22T07:29:17.929Z,11.37
2022-09-22T07:31:47.666Z,11.44
2022-09-22T07:34:18.831Z,11.58
2022-09-22T07:36:52.111Z,11.76
2022-09-22T07:39:22.001Z,11.98
2022-09-22T07:41:51.737Z,12.17
2022-09-22T07:44:33.844Z,12.32
2022-09-22T07:47:04.962Z,12.53
2022-09-22T07:49:34.805Z,12.76
2022-09-22T07:52:07.231Z,12.99
2022-09-22T07:54:37.536Z,13.26
2022-09-22T07:57:08.813Z,13.54
2022-09-22T07:59:39.839Z,13.82
2022-09-22T08:02:09.708Z,14.10
2022-09-22T08:04:39.445Z,14.35
2022-09-22T08:07:11.882Z,14.54
2022-09-22T08:09:41.573Z,14.76
2022-09-22T08:12:11.629Z,14.99
2022-09-22T08:14:41.297Z,15.23
2022-09-22T08:17:12.462Z,15.43
2022-09-22T08:19:42.156Z,15.63
2022-09-22T08:22:18.032Z,15.86
2022-09-22T08:24:47.711Z,16.09
2022-09-22T08:27:17.596Z,16.31
2022-09-22T08:29:47.281Z,16.55
2022-09-22T08:32:18.401Z,16.75
2022-09-22T08:34:48.189Z,16.93
2022-09-22T08:37:20.769Z,17.13
2022-09-22T08:39:50.495Z,17.34
2022-09-22T08:42:23.313Z,17.51
2022-09-22T08:45:03.081Z,17.69
2022-09-22T08:47:51.367Z,17.87
2022-09-22T08:50:44.879Z,18.09
2022-09-22T08:53:23.084Z,18.29
2022-09-22T08:55:58.366Z,18.51
2022-09-22T08:58:39.613Z,18.69
2022-09-22T09:01:23.758Z,18.80
2022-09-22T09:04:11.169Z,18.96
2022-09-22T09:06:55.996Z,19.07
2022-09-22T09:09:41.333Z,19.16
2022-09-22T09:12:28.988Z,19.25
2022-09-22T09:15:23.790Z,19.36
2022-09-22T09:17:57.003Z,19.44
2022-09-22T09:20:37.081Z,19.45
2022-09-22T09:23:16.201Z,19.46
2022-09-22T09:25:52.500Z,19.48
2022-09-22T09:28:28.026Z,19.48
2022-09-22T09:31:08.052Z,19.48
2022-09-22T09:33:45.331Z,19.52
2022-09-22T09:36:20.736Z,19.54
2022-09-22T09:38:54.879Z,19.56
2022-09-22T09:41:31.911Z,19.58
2022-09-22T09:44:03.344Z,19.59
2022-09-22T09:46:46.052Z,19.58
2022-09-22T09:49:17.844Z,19.55
2022-09-22T09:51:50.344Z,19.53
2022-09-22T09:54:21.776Z,19.47
2022-09-22T09:57:09.127Z,19.41
2022-09-22T09:59:51.969Z,19.34
2022-09-22T10:02:25.486Z,19.26
2022-09-22T10:04:56.948Z,19.21
2022-09-22T10:10:26.461Z,19.11
2022-09-22T10:13:26.096Z,19.01
2022-09-22T10:16:31.764Z,18.88
2022-09-22T10:19:08.623Z,18.79
2022-09-22T10:21:38.324Z,18.71
2022-09-22T10:24:26.287Z,18.68
2022-09-22T10:27:00.385Z,18.64
2022-09-22T10:29:35.998Z,18.59
2022-09-22T10:32:16.918Z,18.54
2022-09-22T10:34:48.759Z,18.47
2022-09-22T10:37:20.724Z,18.45
2022-09-22T10:39:52.707Z,18.42
2022-09-22T10:42:32.699Z,18.42
2022-09-22T10:45:08.887Z,18.43
2022-09-22T10:47:51.928Z,18.42
2022-09-22T10:50:41.597Z,18.42
2022-09-22T10:53:45.874Z,18.41
2022-09-22T10:56:27.464Z,18.43
2022-09-22T10:59:32.709Z,18.46
2022-09-22T11:02:35.063Z,18.47
2022-09-22T11:05:45.892Z,18.51
2022-09-22T11:08:30.833Z,18.53
2022-09-22T11:11:29.254Z,18.51
2022-09-22T11:14:13.973Z,18.54
2022-09-22T11:17:02.554Z,18.56
2022-09-22T11:19:50.752Z,18.63
2022-09-22T11:22:39.456Z,18.68
2022-09-22T11:25:21.743Z,18.71
2022-09-22T11:28:04.749Z,18.75
2022-09-22T11:30:40.645Z,18.79
2022-09-22T11:33:29.316Z,18.84
2022-09-22T11:36:15.923Z,18.86
2022-09-22T11:39:32.504Z,18.88
2022-09-22T11:42:17.345Z,18.94
2022-09-22T11:45:03.912Z,18.96
2022-09-22T11:47:53.291Z,18.96
2022-09-22T11:50:50.853Z,19.00
2022-09-22T11:53:59.833Z,19.02
2022-09-22T11:56:38.634Z,19.00
2022-09-22T11:59:18.701Z,19.00
2022-09-22T12:01:51.465Z,18.98
2022-09-22T12:04:29.822Z,18.99
2022-09-22T12:07:02.756Z,19.03
2022-09-22T12:09:44.575Z,19.09
2022-09-22T12:12:19.789Z,19.10
2022-09-22T12:14:59.392Z,19.10
2022-09-22T12:17:36.862Z,19.09
2022-09-22T12:20:20.233Z,19.12
2022-09-22T12:23:16.340Z,19.14
2022-09-22T12:25:51.761Z,19.12
2022-09-22T12:28:26.028Z,19.13
2022-09-22T12:31:04.218Z,19.15
2022-09-22T12:33:35.632Z,19.19
2022-09-22T12:36:06.992Z,19.24
2022-09-22T12:38:37.432Z,19.26
2022-09-22T12:41:10.495Z,19.28
2022-09-22T12:43:40.381Z,19.28
2022-09-22T12:46:23.865Z,19.30
2022-09-22T12:48:54.117Z,19.31
2022-09-22T12:51:35.197Z,19.34
2022-09-22T12:54:51.543Z,19.37
2022-09-22T12:57:32.942Z,19.39
2022-09-22T13:00:32.868Z,19.37
2022-09-22T13:03:03.939Z,19.32
2022-09-22T13:05:46.534Z,19.30
2022-09-22T13:08:24.632Z,19.31
2022-09-22T13:10:59.608Z,19.33
2022-09-22T13:13:48.585Z,19.37
2022-09-22T13:16:34.663Z,19.38
2022-09-22T13:19:04.920Z,19.37
2022-09-22T13:21:37.061Z,19.40
2022-09-22T13:24:08.490Z,19.42
2022-09-22T13:26:40.722Z,19.40
2022-09-22T13:29:18.249Z,19.43
2022-09-22T13:31:51.224Z,19.44
2022-09-22T13:34:29.275Z,19.48
2022-09-22T13:37:02.534Z,19.44
2022-09-22T13:39:36.891Z,19.42
2022-09-22T13:42:10.045Z,19.42
2022-09-22T13:44:45.619Z,19.41
2022-09-22T13:47:18.726Z,19.41
2022-09-22T13:49:51.979Z,19.42
2022-09-22T13:52:24.866Z,19.42
2022-09-22T13:54:58.150Z,19.42
2022-09-22T13:57:31.514Z,19.43
2022-09-22T14:00:05.516Z,19.43
2022-09-22T14:02:36.808Z,19.42
2022-09-22T14:05:10.039Z,19.40
2022-09-22T14:07:55.524Z,19.38
2022-09-22T14:10:30.801Z,19.38
2022-09-22T14:13:00.549Z,19.36
2022-09-22T14:15:43.951Z,19.35
2022-09-22T14:18:22.904Z,19.31
2022-09-22T14:20:55.958Z,19.28
2022-09-22T14:23:34.678Z,19.27
2022-09-22T14:26:18.243Z,19.26
2022-09-22T14:28:48.120Z,19.24
2022-09-22T14:31:25.978Z,19.24
2022-09-22T14:33:56.573Z,19.20
2022-09-22T14:36:28.681Z,19.20
2022-09-22T14:39:09.452Z,19.19
2022-09-22T14:41:40.723Z,19.18
2022-09-22T14:44:28.265Z,19.19
2022-09-22T14:47:10.544Z,19.16
2022-09-22T14:49:44.641Z,19.10
2022-09-22T14:52:27.169Z,19.09
2022-09-22T14:55:00.344Z,19.06
2022-09-22T14:57:30.476Z,19.03
2022-09-22T15:00:14.209Z,19.00
2022-09-22T15:02:51.921Z,18.98
2022-09-22T15:05:30.168Z,18.97
2022-09-22T15:08:01.269Z,18.98
2022-09-22T15:10:34.219Z,18.98
2022-09-22T15:13:21.832Z,18.98
2022-09-22T15:15:52.261Z,18.98
2022-09-22T15:18:29.794Z,18.98
2022-09-22T15:21:06.648Z,18.96
2022-09-22T15:23:42.123Z,18.94
2022-09-22T15:26:25.501Z,18.93
2022-09-22T15:28:59.266Z,18.91
2022-09-22T15:31:29.925Z,18.92
2022-09-22T15:34:04.084Z,18.92
2022-09-22T15:36:35.336Z,18.91
2022-09-22T15:39:17.038Z,18.92
2022-09-22T15:41:47.593Z,18.89
2022-09-22T15:44:17.838Z,18.90
2022-09-22T15:46:51.645Z,18.88
2022-09-22T15:49:27.066Z,18.87
2022-09-22T15:51:58.820Z,18.86
2022-09-22T15:54:29.701Z,18.86
2022-09-22T15:57:05.424Z,18.85
2022-09-22T15:59:37.054Z,18.83
2022-09-22T16:02:13.808Z,18.81
2022-09-22T16:04:46.123Z,18.79
2022-09-22T16:07:16.789Z,18.76
2022-09-22T16:09:46.508Z,18.74
2022-09-22T16:12:18.674Z,18.71
2022-09-22T16:14:54.194Z,18.68
2022-09-22T16:17:25.004Z,18.66
2022-09-22T16:19:58.668Z,18.64
2022-09-22T16:22:28.383Z,18.59
2022-09-22T16:24:58.061Z,18.54
2022-09-22T16:27:30.075Z,18.50
2022-09-22T16:30:00.456Z,18.48
2022-09-22T16:32:30.750Z,18.44
2022-09-22T16:35:03.514Z,18.41
2022-09-22T16:37:33.343Z,18.37
2022-09-22T16:40:03.158Z,18.33
2022-09-22T16:42:32.879Z,18.29
2022-09-22T16:45:04.033Z,18.23
2022-09-22T16:47:33.720Z,18.17
2022-09-22T16:50:07.589Z,18.12
2022-09-22T16:52:37.622Z,18.05
2022-09-22T16:55:08.267Z,17.99
2022-09-22T16:57:37.950Z,17.92
2022-09-22T17:00:09.801Z,17.86
2022-09-22T17:02:39.720Z,17.80
2022-09-22T17:05:13.110Z,17.75
2022-09-22T17:07:46.334Z,17.69
2022-09-22T17:10:16.472Z,17.63
2022-09-22T17:12:46.207Z,17.57
2022-09-22T17:15:16.841Z,17.49
2022-09-22T17:17:46.777Z,17.42
2022-09-22T17:20:19.385Z,17.35
2022-09-22T17:22:49.452Z,17.28
2022-09-22T17:25:19.294Z,17.22
2022-09-22T17:27:49.003Z,17.14
2022-09-22T17:30:18.858Z,17.07
2022-09-22T17:32:48.588Z,17.00
2022-09-22T17:35:20.950Z,16.93
2022-09-22T17:37:52.197Z,16.84
2022-09-22T17:40:22.124Z,16.79
2022-09-22T17:42:51.837Z,16.73
2022-09-22T17:45:21.514Z,16.67
2022-09-22T17:48:03.836Z,16.62
2022-09-22T17:50:48.561Z,16.54
2022-09-22T17:53:30.749Z,16.48
2022-09-22T17:56:05.220Z,16.41
2022-09-22T17:58:35.171Z,16.34
2022-09-22T18:01:04.863Z,16.28
2022-09-22T18:03:35.066Z,16.22
2022-09-22T18:06:15.995Z,16.16
2022-09-22T18:08:45.766Z,16.10
2022-09-22T18:11:15.880Z,16.05
2022-09-22T18:13:45.562Z,15.99
2022-09-22T18:16:22.830Z,15.95
2022-09-22T18:18:52.568Z,15.89
2022-09-22T18:21:24.881Z,15.84
2022-09-22T18:23:56.057Z,15.80
2022-09-22T18:26:31.034Z,15.74
2022-09-22T18:29:00.911Z,15.69
2022-09-22T18:31:30.956Z,15.65
2022-09-22T18:34:00.760Z,15.60
2022-09-22T18:36:33.069Z,15.55
2022-09-22T18:39:02.832Z,15.51
2022-09-22T18:41:32.836Z,15.47
2022-09-22T18:44:04.764Z,15.43
2022-09-22T18:46:36.566Z,15.39
2022-09-22T18:49:09.571Z,15.34
2022-09-22T18:51:44.688Z,15.30
2022-09-22T18:54:15.703Z,15.28
2022-09-22T18:56:47.541Z,15.22
2022-09-22T18:59:19.084Z,15.20
2022-09-22T19:01:50.004Z,15.14
2022-09-22T19:04:22.416Z,15.11
2022-09-22T19:07:08.966Z,15.07
2022-09-22T19:09:42.221Z,15.01
2022-09-22T19:12:13.595Z,14.97
2022-09-22T19:14:43.781Z,14.92
2022-09-22T19:17:17.410Z,14.89
2022-09-22T19:19:53.477Z,14.83
2022-09-22T19:22:27.202Z,14.77
2022-09-22T19:24:57.056Z,14.74
2022-09-22T19:27:26.953Z,14.70
2022-09-22T19:29:56.640Z,14.69
2022-09-22T19:32:26.610Z,14.67
2022-09-22T19:34:57.142Z,14.65
2022-09-22T19:37:32.958Z,14.61
2022-09-22T19:40:03.134Z,14.60
2022-09-22T19:42:39.244Z,14.58
2022-09-22T19:45:11.208Z,14.54
2022-09-22T19:47:43.267Z,14.52
2022-09-22T19:50:13.115Z,14.47
2022-09-22T19:52:45.996Z,14.45
2022-09-22T19:55:20.199Z,14.40
2022-09-22T19:57:53.199Z,14.39
2022-09-22T20:00:26.413Z,14.37
2022-09-22T20:02:58.948Z,14.33
2022-09-22T20:05:31.898Z,14.31
2022-09-22T20:08:04.768Z,14.26
2022-09-22T20:10:35.189Z,14.24
2022-09-22T20:13:25.217Z,14.22
2022-09-22T20:15:55.219Z,14.18
2022-09-22T20:18:24.989Z,14.16
2022-09-22T20:20:56.281Z,14.13
2022-09-22T20:23:28.665Z,14.11
2022-09-22T20:25:58.569Z,14.07
2022-09-22T20:28:28.454Z,14.04
2022-09-22T20:30:58.369Z,14.00
2022-09-22T20:33:28.237Z,13.97
2022-09-22T20:35:58.337Z,13.95
2022-09-22T20:38:31.041Z,13.93
2022-09-22T20:41:03.684Z,13.91
2022-09-22T20:43:33.546Z,13.91
2022-09-22T20:46:04.558Z,13.89
2022-09-22T20:48:34.673Z,13.89
2022-09-22T20:51:04.527Z,13.86
2022-09-22T20:53:39.759Z,13.84
2022-09-22T20:56:11.184Z,13.83
2022-09-22T20:58:43.825Z,13.82
2022-09-22T21:01:15.782Z,13.80
2022-09-22T21:03:45.961Z,13.80
2022-09-22T21:06:17.969Z,13.79
2022-09-22T21:09:02.810Z,13.78
2022-09-22T21:11:33.512Z,13.75
2022-09-22T21:14:06.102Z,13.74
2022-09-22T21:16:40.138Z,13.74
2022-09-22T21:19:10.089Z,13.73
2022-09-22T21:21:40.548Z,13.73
2022-09-22T21:24:13.247Z,13.73
2022-09-22T21:26:43.135Z,13.72
2022-09-22T21:29:13.169Z,13.71
2022-09-22T21:31:43.013Z,13.69
2022-09-22T21:34:12.937Z,13.66
2022-09-22T21:36:42.781Z,13.65
2022-09-22T21:39:15.303Z,13.64
2022-09-22T21:41:45.222Z,13.63
2022-09-22T21:44:15.149Z,13.62
2022-09-22T21:46:45.161Z,13.61
2022-09-22T21:49:14.865Z,13.60
2022-09-22T21:51:47.469Z,13.60
2022-09-22T21:54:21.681Z,13.59
2022-09-22T21:56:51.488Z,13.58
2022-09-22T21:59:21.839Z,13.56
2022-09-22T22:01:51.688Z,13.54
2022-09-22T22:04:21.648Z,13.55
2022-09-22T22:06:52.171Z,13.53
2022-09-22T22:09:26.267Z,13.53
2022-09-22T22:11:57.256Z,13.53
2022-09-22T22:14:35.010Z,13.51
2022-09-22T22:17:07.145Z,13.50
2022-09-22T22:19:37.125Z,13.48
2022-09-22T22:22:07.009Z,13.48
2022-09-22T22:24:42.374Z,13.47
2022-09-22T22:27:15.089Z,13.46
2022-09-22T22:29:46.047Z,13.45
2022-09-22T22:32:15.757Z,13.43
2022-09-22T22:34:45.468Z,13.40
2022-09-22T22:37:16.480Z,13.41
2022-09-22T22:39:48.749Z,13.41
2022-09-22T22:42:18.458Z,13.40
2022-09-22T22:44:48.230Z,13.40
2022-09-22T22:47:17.960Z,13.41
2022-09-22T22:49:48.308Z,13.39
2022-09-22T22:52:18.656Z,13.37
2022-09-22T22:54:52.795Z,13.37
2022-09-22T22:57:22.500Z,13.34
2022-09-22T22:59:52.196Z,13.33
2022-09-22T23:02:22.143Z,13.31
2022-09-22T23:04:52.808Z,13.29
2022-09-22T23:07:22.573Z,13.27
2022-09-22T23:10:06.476Z,13.25
2022-09-22T23:12:40.363Z,13.21
2022-09-22T23:15:12.705Z,13.20
2022-09-22T23:17:42.450Z,13.18
2022-09-22T23:20:13.211Z,13.15
2022-09-22T23:22:42.974Z,13.14
2022-09-22T23:25:15.836Z,13.13
2022-09-22T23:27:50.092Z,13.09
2022-09-22T23:30:20.267Z,13.08
2022-09-22T23:32:50.355Z,13.04
2022-09-22T23:35:20.404Z,13.02
2022-09-22T23:37:51.161Z,12.99
2022-09-22T23:40:23.650Z,12.97
2022-09-22T23:42:54.493Z,12.95
2022-09-22T23:45:24.591Z,12.94
2022-09-22T23:47:54.838Z,12.91
2022-09-22T23:50:24.733Z,12.90
2022-09-22T23:52:54.761Z,12.89
2022-09-22T23:55:27.165Z,12.86
2022-09-22T23:57:56.907Z,12.83
